Time;durP1;ratioP1;P1;durP2;ratioP2;P2;SDS_P1;SDS_P2;PMS_P1;PMS_P2;Temp;Humidity;BMP_temperature;BMP_pressure;BME280_temperature;BME280_humidity;BME280_pressure;Samples;Min_cycle;Max_cycle;Signal;HPM_P1;HPM_P2
2022/10/19 00:00:27;;;;;;;17.17;8.15;;;;;;;;;;5153628;27;20029;-74
2022/10/19 00:03:13;;;;;;;13.32;8.23;;;;;;;;;;5154325;27;20057;-75
2022/10/19 00:05:59;;;;;;;13.18;7.28;;;;;;;;;;5155021;27;20075;-75
2022/10/19 00:08:45;;;;;;;14.80;8.40;;;;;;;;;;5140220;27;20022;-75
2022/10/19 00:11:31;;;;;;;12.20;7.80;;;;;;;;;;5141012;27;20019;-75
2022/10/19 00:14:18;;;;;;;10.13;7.65;;;;;;;;;;5140569;27;20033;-74
2022/10/19 00:17:04;;;;;;;12.15;7.70;;;;;;;;;;5154199;27;20428;-76
2022/10/19 00:19:49;;;;;;;10.85;7.05;;;;;;;;;;5140459;27;20022;-74
2022/10/19 00:22:35;;;;;;;14.13;7.60;;;;;;;;;;5154104;27;20082;-74
2022/10/19 00:25:21;;;;;;;13.20;8.10;;;;;;;;;;5155168;27;20087;-74
2022/10/19 00:28:06;;;;;;;10.65;6.97;;;;;;;;;;5139813;27;20007;-74
2022/10/19 00:30:52;;;;;;;13.57;7.15;;;;;;;;;;5154455;27;20101;-74
2022/10/19 00:33:38;;;;;;;11.25;7.22;;;;;;;;;;5155408;27;20019;-74
2022/10/19 00:36:29;;;;;;;14.82;7.38;;;;;;;;;;5139870;27;20053;-74
2022/10/19 00:39:15;;;;;;;14.07;8.23;;;;;;;;;;5154444;27;20019;-74
2022/10/19 00:42:01;;;;;;;11.20;7.28;;;;;;;;;;5155210;27;20078;-74
2022/10/19 00:44:46;;;;;;;11.18;7.28;;;;;;;;;;5139565;27;20015;-73
2022/10/19 00:47:32;;;;;;;14.15;7.80;;;;;;;;;;5154316;27;20015;-75
2022/10/19 00:50:18;;;;;;;15.18;7.47;;;;;;;;;;5155567;27;20045;-74
2022/10/19 00:53:03;;;;;;;10.10;7.40;;;;;;;;;;5155585;27;20378;-74
2022/10/19 00:55:49;;;;;;;14.27;7.78;;;;;;;;;;5138948;27;20023;-74
2022/10/19 00:58:35;;;;;;;12.88;8.23;;;;;;;;;;5139722;27;20015;-75
2022/10/19 01:01:22;;;;;;;12.90;8.10;;;;;;;;;;5139969;27;20110;-76
2022/10/19 01:04:08;;;;;;;12.07;8.18;;;;;;;;;;5153835;27;20489;-74
2022/10/19 01:06:53;;;;;;;15.00;8.02;;;;;;;;;;5139002;27;20023;-75
2022/10/19 01:09:39;;;;;;;12.65;8.40;;;;;;;;;;5154958;27;20022;-74
2022/10/19 01:12:40;;;;;;;12.05;8.07;;;;;;;;;;5156173;27;20019;-75
2022/10/19 01:15:29;;;;;;;18.58;8.23;;;;;;;;;;5158086;27;20364;-75
2022/10/19 01:18:19;;;;;;;12.18;8.45;;;;;;;;;;5141782;27;20455;-76
2022/10/19 01:21:25;;;;;;;13.60;8.82;;;;;;;;;;5158518;27;20114;-75
2022/10/19 01:24:10;;;;;;;14.15;7.88;;;;;;;;;;5158138;27;20359;-76
2022/10/19 01:27:16;;;;;;;24.90;8.75;;;;;;;;;;5157602;27;20049;-74
2022/10/19 01:30:05;;;;;;;17.70;8.02;;;;;;;;;;5158151;27;20023;-75
2022/10/19 01:33:03;;;;;;;13.35;8.00;;;;;;;;;;5158067;27;20023;-75
2022/10/19 01:35:54;;;;;;;14.68;8.15;;;;;;;;;;5157754;27;20026;-74
2022/10/19 01:38:43;;;;;;;13.65;8.70;;;;;;;;;;5117772;28;20046;-75
2022/10/19 01:41:28;;;;;;;11.63;8.18;;;;;;;;;;5117757;28;20025;-74
2022/10/19 01:44:33;;;;;;;13.63;8.15;;;;;;;;;;5126224;27;20012;-73
2022/10/19 01:47:21;;;;;;;12.00;7.72;;;;;;;;;;5129176;28;20185;-75
2022/10/19 01:50:24;;;;;;;14.10;7.95;;;;;;;;;;5119009;28;20031;-75
2022/10/19 01:53:11;;;;;;;14.98;8.05;;;;;;;;;;5118298;27;20016;-76
2022/10/19 01:55:57;;;;;;;12.27;7.78;;;;;;;;;;5117923;27;20111;-74
2022/10/19 01:58:44;;;;;;;13.35;8.93;;;;;;;;;;5116330;28;20101;-74
2022/10/19 02:01:32;;;;;;;10.40;7.35;;;;;;;;;;5118036;28;20088;-74
2022/10/19 02:04:18;;;;;;;12.20;7.90;;;;;;;;;;5119767;28;20072;-74
2022/10/19 02:07:04;;;;;;;14.13;7.95;;;;;;;;;;5132762;28;20023;-74
2022/10/19 02:09:50;;;;;;;13.48;8.73;;;;;;;;;;5120994;28;20143;-75
2022/10/19 02:12:36;;;;;;;16.23;8.73;;;;;;;;;;5116187;28;20027;-74
2022/10/19 02:15:23;;;;;;;13.05;7.65;;;;;;;;;;5123918;28;20015;-76
2022/10/19 02:18:09;;;;;;;14.13;7.75;;;;;;;;;;5127858;27;20012;-74
2022/10/19 02:20:55;;;;;;;14.65;8.30;;;;;;;;;;5124652;28;20121;-74
2022/10/19 02:23:42;;;;;;;15.25;8.18;;;;;;;;;;5116468;28;20031;-75
2022/10/19 02:26:28;;;;;;;16.15;8.43;;;;;;;;;;5117532;28;20441;-76
2022/10/19 02:29:13;;;;;;;13.80;8.70;;;;;;;;;;5116332;28;20028;-75
2022/10/19 02:31:59;;;;;;;13.82;9.07;;;;;;;;;;5117205;28;20459;-75
2022/10/19 02:34:45;;;;;;;11.98;8.18;;;;;;;;;;5117168;27;20020;-75
2022/10/19 02:37:31;;;;;;;11.85;7.75;;;;;;;;;;5146033;27;20118;-75
2022/10/19 02:40:16;;;;;;;15.80;8.70;;;;;;;;;;5142945;27;20019;-75
2022/10/19 02:43:09;;;;;;;14.07;9.60;;;;;;;;;;5157103;27;20054;-74
2022/10/19 02:45:58;;;;;;;14.73;8.90;;;;;;;;;;5156796;27;20022;-74
2022/10/19 02:48:44;;;;;;;15.48;10.00;;;;;;;;;;5155908;27;20015;-75
2022/10/19 02:51:32;;;;;;;20.67;10.63;;;;;;;;;;5155811;27;20468;-75
2022/10/19 02:54:17;;;;;;;14.88;9.95;;;;;;;;;;5157189;27;20455;-75
2022/10/19 02:57:11;;;;;;;17.38;10.65;;;;;;;;;;5156203;27;20083;-75
2022/10/19 02:59:56;;;;;;;15.93;10.65;;;;;;;;;;5156325;27;20505;-75
2022/10/19 03:02:43;;;;;;;21.95;11.70;;;;;;;;;;5156040;27;20027;-75
2022/10/19 03:05:29;;;;;;;18.33;10.38;;;;;;;;;;5156199;27;20097;-75
2022/10/19 03:08:14;;;;;;;15.77;10.48;;;;;;;;;;5156310;27;20029;-76
2022/10/19 03:11:00;;;;;;;15.30;10.13;;;;;;;;;;5156287;27;20018;-75
2022/10/19 03:13:45;;;;;;;15.93;9.93;;;;;;;;;;5155886;27;20042;-75
2022/10/19 03:16:31;;;;;;;15.15;10.07;;;;;;;;;;5156176;27;20023;-73
2022/10/19 03:19:17;;;;;;;16.40;10.70;;;;;;;;;;5155590;27;20015;-76
2022/10/19 03:22:02;;;;;;;16.45;9.73;;;;;;;;;;5155545;27;20431;-75
2022/10/19 03:24:48;;;;;;;18.23;10.63;;;;;;;;;;5155552;27;20337;-75
2022/10/19 03:27:34;;;;;;;15.18;10.20;;;;;;;;;;5155686;27;20037;-76
2022/10/19 03:30:19;;;;;;;18.05;11.48;;;;;;;;;;5140691;27;20022;-75
2022/10/19 03:33:05;;;;;;;22.08;12.68;;;;;;;;;;5155332;27;20111;-74
2022/10/19 03:36:10;;;;;;;22.23;13.25;;;;;;;;;;5154239;27;20011;-75
2022/10/19 03:38:57;;;;;;;20.30;13.38;;;;;;;;;;5155861;27;20031;-75
2022/10/19 03:41:43;;;;;;;21.35;13.63;;;;;;;;;;5140150;27;20022;-75
2022/10/19 03:44:28;;;;;;;18.80;12.75;;;;;;;;;;5155444;27;20030;-76
2022/10/19 03:47:14;;;;;;;19.52;12.32;;;;;;;;;;5155719;27;20014;-75
2022/10/19 03:50:00;;;;;;;21.40;11.65;;;;;;;;;;5156087;27;20333;-76
2022/10/19 03:52:48;;;;;;;19.30;11.60;;;;;;;;;;5156119;27;20023;-75
2022/10/19 03:55:33;;;;;;;17.92;11.57;;;;;;;;;;5155550;27;20022;-75
2022/10/19 03:58:19;;;;;;;16.80;10.13;;;;;;;;;;5155066;27;20062;-75
2022/10/19 04:01:09;;;;;;;18.73;10.38;;;;;;;;;;5155043;27;20026;-74
2022/10/19 04:03:55;;;;;;;17.45;10.50;;;;;;;;;;5139532;27;20019;-74
2022/10/19 04:06:42;;;;;;;19.92;10.60;;;;;;;;;;5140021;27;20395;-77
2022/10/19 04:09:27;;;;;;;18.77;10.70;;;;;;;;;;5154897;27;20053;-77
2022/10/19 04:12:13;;;;;;;21.92;10.55;;;;;;;;;;5155956;27;20455;-76
2022/10/19 04:14:58;;;;;;;20.00;9.70;;;;;;;;;;5155722;27;20314;-76
2022/10/19 04:17:44;;;;;;;19.15;10.13;;;;;;;;;;5154790;27;20029;-75
2022/10/19 04:20:29;;;;;;;17.60;9.45;;;;;;;;;;5155726;27;20114;-75
2022/10/19 04:23:15;;;;;;;18.80;10.27;;;;;;;;;;5155294;27;20336;-76
2022/10/19 04:26:02;;;;;;;16.48;10.35;;;;;;;;;;5155525;27;20043;-76
2022/10/19 04:28:48;;;;;;;17.25;10.25;;;;;;;;;;5154592;27;20015;-75
2022/10/19 04:31:33;;;;;;;19.23;10.95;;;;;;;;;;5154389;27;20496;-75
2022/10/19 04:34:19;;;;;;;21.40;11.43;;;;;;;;;;5154868;27;20097;-75
2022/10/19 04:37:05;;;;;;;21.17;11.25;;;;;;;;;;5138966;27;20445;-76
2022/10/19 04:39:50;;;;;;;18.98;10.88;;;;;;;;;;5154362;27;20057;-75
2022/10/19 04:42:36;;;;;;;21.27;12.30;;;;;;;;;;5155694;27;20015;-76
2022/10/19 04:45:21;;;;;;;23.20;12.13;;;;;;;;;;5139414;27;20113;-75
2022/10/19 04:48:07;;;;;;;21.83;11.57;;;;;;;;;;5158368;27;20015;-76
2022/10/19 04:50:53;;;;;;;16.75;11.25;;;;;;;;;;5159116;27;20023;-76
2022/10/19 04:53:39;;;;;;;18.88;11.95;;;;;;;;;;5158586;27;20524;-75
2022/10/19 04:56:25;;;;;;;24.25;13.48;;;;;;;;;;5142889;27;20033;-75
2022/10/19 04:59:11;;;;;;;22.33;13.35;;;;;;;;;;5158517;27;20057;-76
2022/10/19 05:01:57;;;;;;;24.10;12.35;;;;;;;;;;5159018;27;20034;-77
2022/10/19 05:04:42;;;;;;;21.13;12.60;;;;;;;;;;5158088;27;20029;-76
2022/10/19 05:07:28;;;;;;;24.70;12.32;;;;;;;;;;5158277;27;20082;-76
2022/10/19 05:10:13;;;;;;;21.20;12.80;;;;;;;;;;5158643;27;20451;-76
2022/10/19 05:13:00;;;;;;;24.13;11.70;;;;;;;;;;5158964;27;20023;-74
2022/10/19 05:15:59;;;;;;;20.40;12.15;;;;;;;;;;5158250;27;20424;-74
2022/10/19 05:18:46;;;;;;;21.73;12.18;;;;;;;;;;5143095;27;20390;-74
2022/10/19 05:21:32;;;;;;;21.83;12.60;;;;;;;;;;5142652;27;20367;-75
2022/10/19 05:24:17;;;;;;;21.63;12.60;;;;;;;;;;5156582;27;20038;-74
2022/10/19 05:27:03;;;;;;;24.33;13.05;;;;;;;;;;5158039;27;20027;-74
2022/10/19 05:29:48;;;;;;;26.60;13.30;;;;;;;;;;5158413;27;20010;-74
2022/10/19 05:32:34;;;;;;;25.45;13.55;;;;;;;;;;5158544;27;20010;-75
2022/10/19 05:35:20;;;;;;;26.65;13.60;;;;;;;;;;5157141;27;20019;-74
2022/10/19 05:38:06;;;;;;;22.77;12.70;;;;;;;;;;5157164;27;20057;-74
2022/10/19 05:40:51;;;;;;;21.92;12.20;;;;;;;;;;5158060;27;20102;-74
2022/10/19 05:43:38;;;;;;;24.35;16.33;;;;;;;;;;5156797;27;20023;-74
2022/10/19 05:46:24;;;;;;;27.38;13.50;;;;;;;;;;5142085;27;20014;-73
2022/10/19 05:49:10;;;;;;;27.13;12.25;;;;;;;;;;5157770;27;20019;-73
2022/10/19 05:51:56;;;;;;;22.85;12.50;;;;;;;;;;5142112;27;20069;-74
2022/10/19 05:54:41;;;;;;;23.15;12.32;;;;;;;;;;5158130;27;20018;-76
2022/10/19 05:57:27;;;;;;;18.48;12.60;;;;;;;;;;5143751;27;20023;-75
2022/10/19 06:00:13;;;;;;;20.33;11.90;;;;;;;;;;5157883;27;20038;-77
2022/10/19 06:02:58;;;;;;;20.13;12.10;;;;;;;;;;5158015;27;20364;-76
2022/10/19 06:05:44;;;;;;;20.05;11.57;;;;;;;;;;5157824;27;20102;-76
2022/10/19 06:08:30;;;;;;;21.35;11.88;;;;;;;;;;5159650;27;20079;-75
2022/10/19 06:11:15;;;;;;;30.85;12.63;;;;;;;;;;5157147;27;20018;-77
2022/10/19 06:14:03;;;;;;;19.15;12.10;;;;;;;;;;5142558;27;20021;-77
2022/10/19 06:16:48;;;;;;;27.15;12.40;;;;;;;;;;5159084;27;20034;-77
2022/10/19 06:19:34;;;;;;;18.88;12.00;;;;;;;;;;5158225;27;20014;-78
2022/10/19 06:22:20;;;;;;;20.70;12.13;;;;;;;;;;5158043;27;20083;-76
2022/10/19 06:25:06;;;;;;;20.67;12.73;;;;;;;;;;5159634;27;20037;-76
2022/10/19 06:27:52;;;;;;;20.27;12.55;;;;;;;;;;5161125;27;20043;-75
2022/10/19 06:30:40;;;;;;;20.52;12.38;;;;;;;;;;5160448;27;20015;-76
2022/10/19 06:33:27;;;;;;;20.73;12.15;;;;;;;;;;5170667;27;20015;-75
2022/10/19 06:36:12;;;;;;;26.40;14.25;;;;;;;;;;5171342;27;20031;-76
2022/10/19 06:38:58;;;;;;;19.58;12.52;;;;;;;;;;5158024;27;20019;-75
2022/10/19 06:41:44;;;;;;;21.92;12.45;;;;;;;;;;5157282;27;20019;-75
2022/10/19 06:44:30;;;;;;;18.23;11.25;;;;;;;;;;5156934;27;20360;-75
2022/10/19 06:47:15;;;;;;;17.75;11.02;;;;;;;;;;5158031;27;20038;-75
2022/10/19 06:50:02;;;;;;;21.88;11.82;;;;;;;;;;5157493;27;20054;-76
2022/10/19 06:52:48;;;;;;;26.58;12.80;;;;;;;;;;5156560;27;20363;-76
2022/10/19 06:55:33;;;;;;;20.77;12.48;;;;;;;;;;5156897;27;20029;-75
2022/10/19 06:58:19;;;;;;;19.38;11.88;;;;;;;;;;5159191;27;20011;-77
2022/10/19 07:01:08;;;;;;;19.23;11.48;;;;;;;;;;5160093;27;20026;-74
2022/10/19 07:03:54;;;;;;;22.17;11.77;;;;;;;;;;5169315;27;20022;-74
2022/10/19 07:06:39;;;;;;;20.10;11.98;;;;;;;;;;5156217;27;20039;-75
2022/10/19 07:09:25;;;;;;;17.70;12.38;;;;;;;;;;5156115;27;20094;-75
2022/10/19 07:12:10;;;;;;;24.20;12.77;;;;;;;;;;5156517;27;20022;-75
2022/10/19 07:14:57;;;;;;;20.48;12.70;;;;;;;;;;5157063;27;20487;-76
2022/10/19 07:17:42;;;;;;;21.13;11.90;;;;;;;;;;5155479;27;20050;-77
2022/10/19 07:20:28;;;;;;;17.88;11.48;;;;;;;;;;5156847;27;20027;-75
2022/10/19 07:23:13;;;;;;;22.60;12.10;;;;;;;;;;5156783;27;20058;-76
2022/10/19 07:26:03;;;;;;;21.35;12.95;;;;;;;;;;5140719;27;20019;-75
2022/10/19 07:28:49;;;;;;;20.88;12.95;;;;;;;;;;5156730;27;20023;-75
2022/10/19 07:31:34;;;;;;;24.13;15.25;;;;;;;;;;5155655;27;20029;-76
2022/10/19 07:34:20;;;;;;;20.90;13.25;;;;;;;;;;5143931;27;20057;-76
2022/10/19 07:37:06;;;;;;;19.98;12.80;;;;;;;;;;5135810;27;20039;-76
2022/10/19 07:39:51;;;;;;;20.23;12.50;;;;;;;;;;5117793;28;20023;-75
2022/10/19 07:42:38;;;;;;;22.25;12.63;;;;;;;;;;5116437;28;20028;-76
2022/10/19 07:45:23;;;;;;;20.33;12.25;;;;;;;;;;5114722;28;20047;-77
2022/10/19 07:48:09;;;;;;;21.20;12.25;;;;;;;;;;5114780;28;20024;-76
2022/10/19 07:50:54;;;;;;;22.98;12.77;;;;;;;;;;5114628;28;20092;-76
2022/10/19 07:53:40;;;;;;;18.77;11.32;;;;;;;;;;5114494;28;20077;-76
2022/10/19 07:56:27;;;;;;;19.33;11.07;;;;;;;;;;5114202;28;20019;-77
2022/10/19 07:59:15;;;;;;;23.08;12.52;;;;;;;;;;5116661;28;20055;-76
2022/10/19 08:02:03;;;;;;;14.50;9.60;;;;;;;;;;5113810;28;20026;-76
2022/10/19 08:04:49;;;;;;;16.30;9.63;;;;;;;;;;5114574;28;20092;-76
2022/10/19 08:07:35;;;;;;;16.00;10.02;;;;;;;;;;5113747;28;20103;-76
2022/10/19 08:10:21;;;;;;;28.40;16.45;;;;;;;;;;5115156;28;20042;-77
2022/10/19 08:13:06;;;;;;;29.65;11.40;;;;;;;;;;5114288;28;20056;-76
2022/10/19 08:15:52;;;;;;;16.77;10.52;;;;;;;;;;5113820;28;20015;-75
2022/10/19 08:18:37;;;;;;;22.92;11.82;;;;;;;;;;5114528;28;20062;-76
2022/10/19 08:21:25;;;;;;;17.65;10.45;;;;;;;;;;5114740;28;20012;-76
2022/10/19 08:24:12;;;;;;;22.23;11.57;;;;;;;;;;5118381;28;20024;-76
2022/10/19 08:27:01;;;;;;;16.85;10.55;;;;;;;;;;5117864;28;20164;-75
2022/10/19 08:29:47;;;;;;;20.38;12.52;;;;;;;;;;5119005;28;20097;-76
2022/10/19 08:32:32;;;;;;;18.75;12.32;;;;;;;;;;5118060;28;20019;-76
2022/10/19 08:35:18;;;;;;;20.95;11.02;;;;;;;;;;5118264;28;20050;-76
2022/10/19 08:38:03;;;;;;;18.00;9.80;;;;;;;;;;5155807;27;20035;-76
2022/10/19 08:40:49;;;;;;;14.75;9.20;;;;;;;;;;5159208;27;20452;-76
2022/10/19 08:43:37;;;;;;;17.70;8.75;;;;;;;;;;5158143;27;20018;-76
2022/10/19 08:46:41;;;;;;;26.15;9.63;;;;;;;;;;5158135;27;20083;-75
2022/10/19 08:49:29;;;;;;;14.45;8.60;;;;;;;;;;5158365;27;20015;-76
2022/10/19 08:52:17;;;;;;;12.82;8.38;;;;;;;;;;5159000;27;20019;-76
2022/10/19 08:55:10;;;;;;;15.60;8.88;;;;;;;;;;5158705;27;20011;-77
2022/10/19 08:58:02;;;;;;;14.48;8.75;;;;;;;;;;5159137;27;20018;-75
2022/10/19 09:00:51;;;;;;;20.25;8.55;;;;;;;;;;5143380;27;20018;-75
2022/10/19 09:04:08;;;;;;;16.50;8.52;;;;;;;;;;5159893;27;20054;-75
2022/10/19 09:06:57;;;;;;;12.15;7.93;;;;;;;;;;5125850;27;20041;-76
2022/10/19 09:09:45;;;;;;;14.90;8.52;;;;;;;;;;5158163;27;20026;-76
2022/10/19 09:12:39;;;;;;;17.38;8.45;;;;;;;;;;5158554;27;20023;-76
2022/10/19 09:15:33;;;;;;;15.43;8.20;;;;;;;;;;5161996;27;20019;-76
2022/10/19 09:18:26;;;;;;;11.40;8.15;;;;;;;;;;5159631;27;20440;-76
2022/10/19 09:21:18;;;;;;;11.52;7.82;;;;;;;;;;5158500;27;20022;-75
2022/10/19 09:24:17;;;;;;;10.73;7.38;;;;;;;;;;5159102;27;20029;-75
2022/10/19 09:27:02;;;;;;;11.55;7.35;;;;;;;;;;5158591;27;20014;-77
2022/10/19 09:29:55;;;;;;;13.02;7.65;;;;;;;;;;5158580;27;20027;-75
2022/10/19 09:32:41;;;;;;;13.55;7.95;;;;;;;;;;5157968;27;20106;-75
2022/10/19 09:35:36;;;;;;;14.57;8.45;;;;;;;;;;5143547;27;20019;-76
2022/10/19 09:38:24;;;;;;;10.35;7.43;;;;;;;;;;5158956;27;20471;-76
2022/10/19 09:41:15;;;;;;;15.35;8.88;;;;;;;;;;5158561;27;20014;-76
2022/10/19 09:44:01;;;;;;;16.23;9.00;;;;;;;;;;5157406;27;20082;-75
2022/10/19 09:46:51;;;;;;;16.52;9.15;;;;;;;;;;5142669;27;20090;-75
2022/10/19 09:49:37;;;;;;;15.20;8.85;;;;;;;;;;5157763;27;20038;-76
2022/10/19 09:52:31;;;;;;;10.73;8.20;;;;;;;;;;5157737;27;20031;-75
2022/10/19 09:55:21;;;;;;;12.50;8.55;;;;;;;;;;5158701;27;20015;-75
2022/10/19 09:58:12;;;;;;;14.65;8.75;;;;;;;;;;5158134;27;20110;-72
2022/10/19 10:00:58;;;;;;;14.32;9.05;;;;;;;;;;5143172;27;20029;-72
2022/10/19 10:03:48;;;;;;;13.25;9.15;;;;;;;;;;5142701;27;20082;-72
2022/10/19 10:06:37;;;;;;;16.90;8.38;;;;;;;;;;5142796;27;20030;-73
2022/10/19 10:09:25;;;;;;;17.63;8.18;;;;;;;;;;5158733;27;20094;-73
2022/10/19 10:12:13;;;;;;;20.48;7.55;;;;;;;;;;5157832;27;20083;-73
2022/10/19 10:14:58;;;;;;;9.98;7.40;;;;;;;;;;5157867;27;20086;-72
2022/10/19 10:17:46;;;;;;;12.27;7.75;;;;;;;;;;5157392;27;20018;-73
2022/10/19 10:20:31;;;;;;;8.98;7.00;;;;;;;;;;5157352;27;20367;-72
2022/10/19 10:23:22;;;;;;;13.57;7.80;;;;;;;;;;5141750;27;20029;-73
2022/10/19 10:26:15;;;;;;;14.32;7.68;;;;;;;;;;5156500;27;20034;-72
2022/10/19 10:29:00;;;;;;;12.07;7.78;;;;;;;;;;5156772;27;20428;-73
2022/10/19 10:31:48;;;;;;;16.35;7.72;;;;;;;;;;5157278;27;20091;-73
2022/10/19 10:34:44;;;;;;;16.63;7.60;;;;;;;;;;5157119;27;20064;-73
2022/10/19 10:37:36;;;;;;;11.80;6.82;;;;;;;;;;5157343;27;20431;-75
2022/10/19 10:40:23;;;;;;;12.18;7.53;;;;;;;;;;5141797;27;20015;-76
2022/10/19 10:43:14;;;;;;;8.77;6.43;;;;;;;;;;5141033;27;20071;-75
2022/10/19 10:46:04;;;;;;;13.60;7.43;;;;;;;;;;5155547;27;20375;-75
2022/10/19 10:48:57;;;;;;;12.98;7.05;;;;;;;;;;5156717;27;20452;-75
2022/10/19 10:51:44;;;;;;;13.32;7.40;;;;;;;;;;5156341;27;20050;-74
2022/10/19 10:54:30;;;;;;;11.98;7.47;;;;;;;;;;5156946;27;20019;-75
2022/10/19 10:57:19;;;;;;;12.68;7.10;;;;;;;;;;5142424;27;20108;-75
2022/10/19 11:00:09;;;;;;;13.63;7.25;;;;;;;;;;5157142;27;20015;-73
2022/10/19 11:03:10;;;;;;;13.18;7.28;;;;;;;;;;5157215;27;20007;-74
2022/10/19 11:05:59;;;;;;;9.85;6.70;;;;;;;;;;5174906;27;20546;-73
2022/10/19 11:08:45;;;;;;;7.22;5.50;;;;;;;;;;5157612;27;20424;-75
2022/10/19 11:11:42;;;;;;;9.60;5.25;;;;;;;;;;5155875;27;20030;-74
2022/10/19 11:14:45;;;;;;;11.93;5.47;;;;;;;;;;5141490;27;20463;-74
2022/10/19 11:17:32;;;;;;;8.93;6.30;;;;;;;;;;5155758;27;20019;-74
2022/10/19 11:20:18;;;;;;;10.20;5.30;;;;;;;;;;5155995;27;20169;-73
2022/10/19 11:23:14;;;;;;;9.93;5.22;;;;;;;;;;5140867;27;20021;-76
2022/10/19 11:26:18;;;;;;;9.02;4.82;;;;;;;;;;5156480;27;20094;-75
2022/10/19 11:29:04;;;;;;;9.70;5.25;;;;;;;;;;5166007;27;20029;-73
2022/10/19 11:31:53;;;;;;;14.05;6.18;;;;;;;;;;5161546;27;20027;-75
2022/10/19 11:34:45;;;;;;;10.90;4.90;;;;;;;;;;5156231;27;20015;-75
2022/10/19 11:37:49;;;;;;;7.53;5.07;;;;;;;;;;5143127;27;20039;-74
2022/10/19 11:40:44;;;;;;;9.02;4.50;;;;;;;;;;5156768;27;20393;-75
2022/10/19 11:43:55;;;;;;;10.15;5.00;;;;;;;;;;5155860;27;20409;-75
2022/10/19 11:46:50;;;;;;;9.32;4.30;;;;;;;;;;5118936;27;20043;-74
2022/10/19 11:49:44;;;;;;;8.40;5.40;;;;;;;;;;5155453;27;20095;-74
2022/10/19 11:52:33;;;;;;;11.48;5.85;;;;;;;;;;5155309;27;20102;-75
2022/10/19 11:55:29;;;;;;;8.95;4.78;;;;;;;;;;5155210;27;20094;-76
2022/10/19 11:58:17;;;;;;;11.15;4.55;;;;;;;;;;5155150;27;20034;-81
2022/10/19 12:01:06;;;;;;;7.05;4.75;;;;;;;;;;5154807;27;20019;-76
2022/10/19 12:04:14;;;;;;;6.60;4.30;;;;;;;;;;5154745;27;20097;-78
2022/10/19 12:07:18;;;;;;;12.70;5.10;;;;;;;;;;5129316;27;20039;-80
2022/10/19 12:10:04;;;;;;;10.73;4.65;;;;;;;;;;5140286;27;20463;-80
2022/10/19 12:12:51;;;;;;;5.45;4.10;;;;;;;;;;5140080;27;20018;-81
2022/10/19 12:15:39;;;;;;;7.85;4.65;;;;;;;;;;5155847;27;20018;-78
2022/10/19 12:18:37;;;;;;;9.40;5.00;;;;;;;;;;5155906;27;20007;-81
2022/10/19 12:21:30;;;;;;;10.32;4.45;;;;;;;;;;5154857;27;20026;-81
2022/10/19 12:24:18;;;;;;;8.30;4.90;;;;;;;;;;5140988;27;20027;-80
2022/10/19 12:27:04;;;;;;;9.40;4.68;;;;;;;;;;5154751;27;20421;-81
2022/10/19 12:29:50;;;;;;;8.35;5.30;;;;;;;;;;5139677;27;20036;-81
2022/10/19 12:32:45;;;;;;;7.85;4.90;;;;;;;;;;5140000;27;20034;-80
2022/10/19 12:35:35;;;;;;;6.50;4.65;;;;;;;;;;5140003;27;20034;-80
2022/10/19 12:38:25;;;;;;;9.38;4.80;;;;;;;;;;5154899;27;20473;-82
2022/10/19 12:41:17;;;;;;;11.25;4.93;;;;;;;;;;5155648;27;20054;-81
2022/10/19 12:44:21;;;;;;;10.27;5.38;;;;;;;;;;5140282;27;20026;-81
2022/10/19 12:47:12;;;;;;;10.85;5.80;;;;;;;;;;5155472;27;20086;-81
2022/10/19 12:50:00;;;;;;;8.07;5.70;;;;;;;;;;5154815;27;20090;-82
2022/10/19 12:52:47;;;;;;;6.38;4.57;;;;;;;;;;5155154;27;20026;-81
2022/10/19 12:55:36;;;;;;;13.18;5.30;;;;;;;;;;5155667;27;20023;-81
2022/10/19 12:58:22;;;;;;;12.23;5.28;;;;;;;;;;5155449;27;20023;-80
2022/10/19 13:01:14;;;;;;;9.20;5.07;;;;;;;;;;5154833;27;20098;-81
2022/10/19 13:04:11;;;;;;;8.57;5.68;;;;;;;;;;5140453;27;20014;-79
2022/10/19 13:06:57;;;;;;;8.60;5.80;;;;;;;;;;5154269;27;20034;-81
2022/10/19 13:09:43;;;;;;;7.95;5.25;;;;;;;;;;5158032;27;20406;-80
2022/10/19 13:12:43;;;;;;;11.10;7.03;;;;;;;;;;5157813;27;20030;-79
2022/10/19 13:15:34;;;;;;;8.68;4.90;;;;;;;;;;5159458;27;20050;-79
2022/10/19 13:18:41;;;;;;;9.93;5.10;;;;;;;;;;5158066;27;20029;-79
2022/10/19 13:21:46;;;;;;;9.60;5.10;;;;;;;;;;5158400;27;20018;-80
2022/10/19 13:24:33;;;;;;;9.50;5.10;;;;;;;;;;5156984;27;20455;-79
2022/10/19 13:27:22;;;;;;;8.57;4.82;;;;;;;;;;5142669;27;20114;-80
2022/10/19 13:30:47;;;;;;;11.93;5.03;;;;;;;;;;5158050;27;20025;-80
2022/10/19 13:33:33;;;;;;;8.95;4.78;;;;;;;;;;5075386;28;20358;-79
2022/10/19 13:36:20;;;;;;;9.70;5.28;;;;;;;;;;5075117;28;20044;-80
2022/10/19 13:39:10;;;;;;;7.57;4.80;;;;;;;;;;5149087;27;20042;-81
2022/10/19 13:41:57;;;;;;;7.13;4.28;;;;;;;;;;5160708;27;20054;-80
2022/10/19 13:44:44;;;;;;;6.78;4.10;;;;;;;;;;5158047;27;20097;-79
2022/10/19 13:47:34;;;;;;;7.65;4.30;;;;;;;;;;5142179;27;20049;-79
2022/10/19 13:50:32;;;;;;;8.50;4.30;;;;;;;;;;5157250;27;20025;-79
2022/10/19 13:53:21;;;;;;;6.57;4.43;;;;;;;;;;5141866;27;20124;-78
2022/10/19 13:56:19;;;;;;;9.23;4.22;;;;;;;;;;5157745;27;20045;-78
2022/10/19 13:59:20;;;;;;;6.57;4.30;;;;;;;;;;5158107;27;20011;-78
2022/10/19 14:02:24;;;;;;;12.18;4.47;;;;;;;;;;5157880;27;20054;-80
2022/10/19 14:05:28;;;;;;;6.95;4.38;;;;;;;;;;5157206;27;20015;-79
2022/10/19 14:08:32;;;;;;;6.53;4.20;;;;;;;;;;5158238;27;20015;-79
2022/10/19 14:11:23;;;;;;;14.93;4.57;;;;;;;;;;5156298;27;20023;-80
2022/10/19 14:14:09;;;;;;;11.43;4.65;;;;;;;;;;5157107;27;20019;-81
2022/10/19 14:17:04;;;;;;;7.38;4.40;;;;;;;;;;5142737;27;20095;-80
2022/10/19 14:19:53;;;;;;;10.80;5.15;;;;;;;;;;5157086;27;20030;-79
2022/10/19 14:22:39;;;;;;;9.43;5.00;;;;;;;;;;5142054;27;20065;-80
2022/10/19 14:25:26;;;;;;;11.13;5.72;;;;;;;;;;5142236;27;20356;-79
2022/10/19 14:28:13;;;;;;;7.47;5.38;;;;;;;;;;5157939;27;20436;-79
2022/10/19 14:31:00;;;;;;;11.27;5.28;;;;;;;;;;5157148;27;20117;-80
2022/10/19 14:33:47;;;;;;;5.80;4.28;;;;;;;;;;5157359;27;20104;-79
2022/10/19 14:36:36;;;;;;;11.82;5.18;;;;;;;;;;5158518;27;20187;-79
2022/10/19 14:39:30;;;;;;;8.60;5.10;;;;;;;;;;5163281;27;20011;-79
2022/10/19 14:42:16;;;;;;;9.30;5.57;;;;;;;;;;5160509;27;20130;-79
2022/10/19 14:45:02;;;;;;;12.43;5.50;;;;;;;;;;5158075;27;20496;-78
2022/10/19 14:47:51;;;;;;;9.48;5.32;;;;;;;;;;5157272;27;20027;-79
2022/10/19 14:50:40;;;;;;;8.95;5.10;;;;;;;;;;5157157;27;20023;-79
2022/10/19 14:53:32;;;;;;;10.05;5.32;;;;;;;;;;5156454;27;20118;-79
2022/10/19 14:56:20;;;;;;;10.77;5.20;;;;;;;;;;5156468;27;20026;-79
2022/10/19 14:59:24;;;;;;;10.80;5.95;;;;;;;;;;5168224;27;20015;-79
2022/10/19 15:02:15;;;;;;;9.75;5.80;;;;;;;;;;5170470;27;20359;-79
2022/10/19 15:05:03;;;;;;;10.82;5.93;;;;;;;;;;5157513;27;20015;-79
2022/10/19 15:07:48;;;;;;;13.60;8.27;;;;;;;;;;5155453;27;20033;-79
2022/10/19 15:10:40;;;;;;;12.63;8.55;;;;;;;;;;5156665;27;20109;-79
2022/10/19 15:13:30;;;;;;;11.93;8.32;;;;;;;;;;5156639;27;20019;-79
2022/10/19 15:16:33;;;;;;;14.68;7.45;;;;;;;;;;5155327;27;20474;-78
2022/10/19 15:19:27;;;;;;;11.77;7.05;;;;;;;;;;5155927;27;20342;-73
2022/10/19 15:22:12;;;;;;;12.82;6.68;;;;;;;;;;5156560;27;20019;-74
2022/10/19 15:25:01;;;;;;;14.88;6.95;;;;;;;;;;5155508;27;20026;-74
2022/10/19 15:27:49;;;;;;;14.80;7.05;;;;;;;;;;5155248;27;20015;-74
2022/10/19 15:30:35;;;;;;;18.98;8.05;;;;;;;;;;5155568;27;20389;-74
2022/10/19 15:33:20;;;;;;;34.70;14.85;;;;;;;;;;5155355;27;20441;-74
2022/10/19 15:36:08;;;;;;;70.13;30.67;;;;;;;;;;5155716;27;20026;-74
2022/10/19 15:38:56;;;;;;;76.35;29.83;;;;;;;;;;5156255;27;20117;-73
2022/10/19 15:41:41;;;;;;;37.50;15.38;;;;;;;;;;5155508;27;20424;-74
2022/10/19 15:44:32;;;;;;;36.38;12.60;;;;;;;;;;5155294;27;20027;-73
2022/10/19 15:47:17;;;;;;;31.42;12.90;;;;;;;;;;5155261;27;20364;-73
2022/10/19 15:50:23;;;;;;;28.83;12.50;;;;;;;;;;5156152;27;20018;-74
2022/10/19 15:53:09;;;;;;;38.47;15.07;;;;;;;;;;5140487;27;20022;-73
2022/10/19 15:55:54;;;;;;;41.03;16.08;;;;;;;;;;5155564;27;20094;-74
2022/10/19 15:58:40;;;;;;;42.58;16.23;;;;;;;;;;5155481;27;20074;-74
2022/10/19 16:01:27;;;;;;;42.55;17.23;;;;;;;;;;5155051;27;20023;-75
2022/10/19 16:04:13;;;;;;;48.10;17.58;;;;;;;;;;5156269;27;20037;-73
2022/10/19 16:07:00;;;;;;;43.20;18.40;;;;;;;;;;5154976;27;20011;-75
2022/10/19 16:09:45;;;;;;;45.90;19.13;;;;;;;;;;5155265;27;20023;-74
2022/10/19 16:12:31;;;;;;;49.83;20.33;;;;;;;;;;5139925;27;20022;-74
2022/10/19 16:15:21;;;;;;;43.20;20.63;;;;;;;;;;5155245;27;20349;-75
2022/10/19 16:18:08;;;;;;;47.83;20.45;;;;;;;;;;5154083;27;20364;-74
2022/10/19 16:20:54;;;;;;;62.28;24.67;;;;;;;;;;5139323;27;20065;-73
2022/10/19 16:23:39;;;;;;;57.13;25.17;;;;;;;;;;5155240;27;20023;-73
2022/10/19 16:26:25;;;;;;;64.35;27.42;;;;;;;;;;5154827;27;20075;-74
2022/10/19 16:29:11;;;;;;;70.30;27.02;;;;;;;;;;5154201;27;20026;-74
2022/10/19 16:31:57;;;;;;;62.65;25.35;;;;;;;;;;5154735;27;20360;-74